sensor_id;sensor_type;location;lat;lon;timestamp;P1;durP1;ratioP1;P2;durP2;ratioP2
13347;SDS011;6743;49.934;9.138;2024-03-22T00:00:17;5.18;;;3.70;;
13347;SDS011;6743;49.934;9.138;2024-03-22T00:02:43;3.17;;;2.92;;
13347;SDS011;6743;49.934;9.138;2024-03-22T00:05:09;3.47;;;3.00;;
13347;SDS011;6743;49.934;9.138;2024-03-22T00:07:35;4.45;;;3.35;;
13347;SDS011;6743;49.934;9.138;2024-03-22T00:10:02;5.20;;;3.08;;
13347;SDS011;6743;49.934;9.138;2024-03-22T00:12:29;4.95;;;4.37;;
13347;SDS011;6743;49.934;9.138;2024-03-22T00:14:54;4.90;;;3.72;;
13347;SDS011;6743;49.934;9.138;2024-03-22T00:17:21;3.80;;;3.22;;
13347;SDS011;6743;49.934;9.138;2024-03-22T00:19:47;3.00;;;2.80;;
13347;SDS011;6743;49.934;9.138;2024-03-22T00:22:13;4.03;;;3.05;;
13347;SDS011;6743;49.934;9.138;2024-03-22T00:24:38;3.85;;;3.30;;
13347;SDS011;6743;49.934;9.138;2024-03-22T00:27:04;4.55;;;3.53;;
13347;SDS011;6743;49.934;9.138;2024-03-22T00:29:31;4.45;;;3.40;;
13347;SDS011;6743;49.934;9.138;2024-03-22T00:31:57;3.62;;;3.10;;
13347;SDS011;6743;49.934;9.138;2024-03-22T00:34:23;5.47;;;3.40;;
13347;SDS011;6743;49.934;9.138;2024-03-22T00:36:49;3.85;;;3.47;;
13347;SDS011;6743;49.934;9.138;2024-03-22T00:39:16;5.37;;;3.60;;
13347;SDS011;6743;49.934;9.138;2024-03-22T00:41:42;4.67;;;4.03;;
13347;SDS011;6743;49.934;9.138;2024-03-22T00:44:08;3.12;;;2.72;;
13347;SDS011;6743;49.934;9.138;2024-03-22T00:46:34;3.22;;;2.70;;
13347;SDS011;6743;49.934;9.138;2024-03-22T00:49:00;5.10;;;3.63;;
13347;SDS011;6743;49.934;9.138;2024-03-22T00:51:26;3.63;;;3.20;;
13347;SDS011;6743;49.934;9.138;2024-03-22T00:53:53;4.63;;;3.43;;
13347;SDS011;6743;49.934;9.138;2024-03-22T00:56:19;4.37;;;3.67;;
13347;SDS011;6743;49.934;9.138;2024-03-22T00:58:45;6.17;;;3.83;;
13347;SDS011;6743;49.934;9.138;2024-03-22T01:01:11;4.77;;;3.50;;
13347;SDS011;6743;49.934;9.138;2024-03-22T01:03:37;3.67;;;2.90;;
13347;SDS011;6743;49.934;9.138;2024-03-22T01:06:04;5.40;;;3.43;;
13347;SDS011;6743;49.934;9.138;2024-03-22T01:08:29;3.73;;;3.03;;
13347;SDS011;6743;49.934;9.138;2024-03-22T01:10:55;3.30;;;2.80;;
13347;SDS011;6743;49.934;9.138;2024-03-22T01:13:21;5.00;;;3.50;;
13347;SDS011;6743;49.934;9.138;2024-03-22T01:15:48;3.43;;;3.13;;
13347;SDS011;6743;49.934;9.138;2024-03-22T01:18:14;4.03;;;2.80;;
13347;SDS011;6743;49.934;9.138;2024-03-22T01:20:40;5.93;;;3.30;;
13347;SDS011;6743;49.934;9.138;2024-03-22T01:23:07;3.77;;;3.27;;
13347;SDS011;6743;49.934;9.138;2024-03-22T01:25:33;3.73;;;3.00;;
13347;SDS011;6743;49.934;9.138;2024-03-22T01:27:59;3.70;;;3.40;;
13347;SDS011;6743;49.934;9.138;2024-03-22T01:30:25;6.03;;;4.13;;
13347;SDS011;6743;49.934;9.138;2024-03-22T01:32:53;3.70;;;3.27;;
13347;SDS011;6743;49.934;9.138;2024-03-22T01:35:19;5.00;;;3.50;;
13347;SDS011;6743;49.934;9.138;2024-03-22T01:37:46;3.93;;;3.10;;
13347;SDS011;6743;49.934;9.138;2024-03-22T01:40:12;4.27;;;3.13;;
13347;SDS011;6743;49.934;9.138;2024-03-22T01:42:38;3.00;;;2.73;;
13347;SDS011;6743;49.934;9.138;2024-03-22T01:45:05;4.20;;;3.27;;
13347;SDS011;6743;49.934;9.138;2024-03-22T01:47:31;4.07;;;3.30;;
13347;SDS011;6743;49.934;9.138;2024-03-22T01:49:57;3.47;;;3.13;;
13347;SDS011;6743;49.934;9.138;2024-03-22T01:52:23;3.93;;;3.53;;
13347;SDS011;6743;49.934;9.138;2024-03-22T01:54:50;4.67;;;3.23;;
13347;SDS011;6743;49.934;9.138;2024-03-22T01:57:16;4.23;;;2.90;;
13347;SDS011;6743;49.934;9.138;2024-03-22T01:59:42;4.83;;;3.73;;
13347;SDS011;6743;49.934;9.138;2024-03-22T02:02:08;3.77;;;3.03;;
13347;SDS011;6743;49.934;9.138;2024-03-22T02:04:36;3.60;;;2.50;;
13347;SDS011;6743;49.934;9.138;2024-03-22T02:07:02;4.50;;;2.87;;
13347;SDS011;6743;49.934;9.138;2024-03-22T02:09:28;7.77;;;3.60;;
13347;SDS011;6743;49.934;9.138;2024-03-22T02:11:55;4.33;;;3.60;;
13347;SDS011;6743;49.934;9.138;2024-03-22T02:14:21;6.03;;;4.03;;
13347;SDS011;6743;49.934;9.138;2024-03-22T02:16:46;4.40;;;3.47;;
13347;SDS011;6743;49.934;9.138;2024-03-22T02:19:12;3.83;;;2.70;;
13347;SDS011;6743;49.934;9.138;2024-03-22T02:21:38;3.77;;;3.33;;
13347;SDS011;6743;49.934;9.138;2024-03-22T02:24:05;5.47;;;3.70;;
13347;SDS011;6743;49.934;9.138;2024-03-22T02:26:31;5.50;;;2.87;;
13347;SDS011;6743;49.934;9.138;2024-03-22T02:28:57;3.43;;;3.10;;
13347;SDS011;6743;49.934;9.138;2024-03-22T02:31:22;3.47;;;3.03;;
13347;SDS011;6743;49.934;9.138;2024-03-22T02:33:50;4.07;;;3.03;;
13347;SDS011;6743;49.934;9.138;2024-03-22T02:36:16;6.53;;;3.67;;
13347;SDS011;6743;49.934;9.138;2024-03-22T02:38:42;4.70;;;3.33;;
13347;SDS011;6743;49.934;9.138;2024-03-22T02:41:09;5.63;;;3.47;;
13347;SDS011;6743;49.934;9.138;2024-03-22T02:43:35;3.80;;;2.87;;
13347;SDS011;6743;49.934;9.138;2024-03-22T02:46:00;4.00;;;3.17;;
13347;SDS011;6743;49.934;9.138;2024-03-22T02:48:26;5.67;;;3.13;;
13347;SDS011;6743;49.934;9.138;2024-03-22T02:50:55;5.27;;;3.57;;
13347;SDS011;6743;49.934;9.138;2024-03-22T02:53:21;3.17;;;2.87;;
13347;SDS011;6743;49.934;9.138;2024-03-22T02:55:47;3.13;;;2.77;;
13347;SDS011;6743;49.934;9.138;2024-03-22T02:58:13;4.83;;;3.17;;
13347;SDS011;6743;49.934;9.138;2024-03-22T03:00:39;5.03;;;3.83;;
13347;SDS011;6743;49.934;9.138;2024-03-22T03:03:07;3.47;;;3.17;;
13347;SDS011;6743;49.934;9.138;2024-03-22T03:05:33;5.27;;;3.47;;
13347;SDS011;6743;49.934;9.138;2024-03-22T03:08:00;4.77;;;2.97;;
13347;SDS011;6743;49.934;9.138;2024-03-22T03:10:25;3.27;;;2.97;;
13347;SDS011;6743;49.934;9.138;2024-03-22T03:12:53;3.80;;;2.97;;
13347;SDS011;6743;49.934;9.138;2024-03-22T03:15:20;5.93;;;3.23;;
13347;SDS011;6743;49.934;9.138;2024-03-22T03:17:46;3.13;;;2.60;;
13347;SDS011;6743;49.934;9.138;2024-03-22T03:20:12;4.50;;;3.27;;
13347;SDS011;6743;49.934;9.138;2024-03-22T03:22:38;4.27;;;3.17;;
13347;SDS011;6743;49.934;9.138;2024-03-22T03:25:04;3.63;;;2.93;;
13347;SDS011;6743;49.934;9.138;2024-03-22T03:27:31;2.40;;;2.20;;
13347;SDS011;6743;49.934;9.138;2024-03-22T03:29:56;3.00;;;2.70;;
13347;SDS011;6743;49.934;9.138;2024-03-22T03:32:23;4.60;;;2.67;;
13347;SDS011;6743;49.934;9.138;2024-03-22T03:34:49;2.83;;;2.47;;
13347;SDS011;6743;49.934;9.138;2024-03-22T03:37:15;4.97;;;3.27;;
13347;SDS011;6743;49.934;9.138;2024-03-22T03:39:41;3.27;;;2.70;;
13347;SDS011;6743;49.934;9.138;2024-03-22T03:42:07;4.50;;;3.00;;
13347;SDS011;6743;49.934;9.138;2024-03-22T03:44:33;4.37;;;3.40;;
13347;SDS011;6743;49.934;9.138;2024-03-22T03:46:59;5.07;;;2.70;;
13347;SDS011;6743;49.934;9.138;2024-03-22T03:49:26;3.30;;;3.00;;
13347;SDS011;6743;49.934;9.138;2024-03-22T03:51:52;3.77;;;3.23;;
13347;SDS011;6743;49.934;9.138;2024-03-22T03:54:18;3.93;;;2.97;;
13347;SDS011;6743;49.934;9.138;2024-03-22T03:56:44;4.40;;;2.93;;
13347;SDS011;6743;49.934;9.138;2024-03-22T03:59:09;4.90;;;2.80;;
13347;SDS011;6743;49.934;9.138;2024-03-22T04:01:35;3.33;;;2.67;;
13347;SDS011;6743;49.934;9.138;2024-03-22T04:04:01;3.83;;;2.70;;
13347;SDS011;6743;49.934;9.138;2024-03-22T04:06:28;5.30;;;3.17;;
13347;SDS011;6743;49.934;9.138;2024-03-22T04:08:54;2.67;;;2.47;;
13347;SDS011;6743;49.934;9.138;2024-03-22T04:11:20;3.23;;;2.93;;
13347;SDS011;6743;49.934;9.138;2024-03-22T04:13:45;4.27;;;3.00;;
13347;SDS011;6743;49.934;9.138;2024-03-22T04:16:12;4.93;;;3.60;;
13347;SDS011;6743;49.934;9.138;2024-03-22T04:18:39;3.70;;;2.50;;
13347;SDS011;6743;49.934;9.138;2024-03-22T04:21:05;3.20;;;2.90;;
13347;SDS011;6743;49.934;9.138;2024-03-22T04:23:31;2.60;;;2.20;;
13347;SDS011;6743;49.934;9.138;2024-03-22T04:25:57;5.33;;;3.23;;
13347;SDS011;6743;49.934;9.138;2024-03-22T04:28:24;3.00;;;2.57;;
13347;SDS011;6743;49.934;9.138;2024-03-22T04:30:56;3.20;;;2.57;;
13347;SDS011;6743;49.934;9.138;2024-03-22T04:33:23;2.87;;;2.47;;
13347;SDS011;6743;49.934;9.138;2024-03-22T04:35:49;2.63;;;2.27;;
13347;SDS011;6743;49.934;9.138;2024-03-22T04:38:15;4.60;;;2.50;;
13347;SDS011;6743;49.934;9.138;2024-03-22T04:40:42;4.07;;;3.13;;
13347;SDS011;6743;49.934;9.138;2024-03-22T04:43:08;2.93;;;2.63;;
13347;SDS011;6743;49.934;9.138;2024-03-22T04:45:34;4.67;;;3.37;;
13347;SDS011;6743;49.934;9.138;2024-03-22T04:48:00;2.53;;;2.33;;
13347;SDS011;6743;49.934;9.138;2024-03-22T04:50:26;2.90;;;2.27;;
13347;SDS011;6743;49.934;9.138;2024-03-22T04:52:52;4.10;;;2.60;;
13347;SDS011;6743;49.934;9.138;2024-03-22T04:55:18;2.73;;;2.53;;
13347;SDS011;6743;49.934;9.138;2024-03-22T04:57:45;5.37;;;2.77;;
13347;SDS011;6743;49.934;9.138;2024-03-22T05:00:11;4.00;;;3.00;;
13347;SDS011;6743;49.934;9.138;2024-03-22T05:02:37;3.53;;;3.03;;
13347;SDS011;6743;49.934;9.138;2024-03-22T05:05:03;3.07;;;2.60;;
13347;SDS011;6743;49.934;9.138;2024-03-22T05:07:30;5.13;;;3.50;;
13347;SDS011;6743;49.934;9.138;2024-03-22T05:09:55;5.63;;;3.90;;
13347;SDS011;6743;49.934;9.138;2024-03-22T05:12:21;3.30;;;2.67;;
13347;SDS011;6743;49.934;9.138;2024-03-22T05:14:48;3.13;;;2.77;;
13347;SDS011;6743;49.934;9.138;2024-03-22T05:17:14;4.83;;;2.87;;
13347;SDS011;6743;49.934;9.138;2024-03-22T05:19:40;3.37;;;2.73;;
13347;SDS011;6743;49.934;9.138;2024-03-22T05:22:05;3.33;;;3.03;;
13347;SDS011;6743;49.934;9.138;2024-03-22T05:24:32;3.47;;;3.07;;
13347;SDS011;6743;49.934;9.138;2024-03-22T05:26:58;3.70;;;3.33;;
13347;SDS011;6743;49.934;9.138;2024-03-22T05:29:23;2.47;;;2.27;;
13347;SDS011;6743;49.934;9.138;2024-03-22T05:31:50;5.73;;;3.00;;
13347;SDS011;6743;49.934;9.138;2024-03-22T05:34:16;2.77;;;2.50;;
13347;SDS011;6743;49.934;9.138;2024-03-22T05:36:43;4.00;;;2.77;;
13347;SDS011;6743;49.934;9.138;2024-03-22T05:39:08;3.33;;;2.83;;
13347;SDS011;6743;49.934;9.138;2024-03-22T05:41:36;6.87;;;3.03;;
13347;SDS011;6743;49.934;9.138;2024-03-22T05:44:01;3.20;;;2.63;;
13347;SDS011;6743;49.934;9.138;2024-03-22T05:46:28;4.37;;;2.93;;
13347;SDS011;6743;49.934;9.138;2024-03-22T05:48:54;4.23;;;2.90;;
13347;SDS011;6743;49.934;9.138;2024-03-22T05:51:23;3.20;;;2.57;;
13347;SDS011;6743;49.934;9.138;2024-03-22T05:53:49;3.60;;;2.60;;
13347;SDS011;6743;49.934;9.138;2024-03-22T05:56:15;2.93;;;2.67;;
13347;SDS011;6743;49.934;9.138;2024-03-22T05:58:41;4.30;;;3.13;;
13347;SDS011;6743;49.934;9.138;2024-03-22T06:01:07;3.37;;;2.93;;
13347;SDS011;6743;49.934;9.138;2024-03-22T06:03:33;4.33;;;3.47;;
13347;SDS011;6743;49.934;9.138;2024-03-22T06:06:00;2.60;;;2.40;;
13347;SDS011;6743;49.934;9.138;2024-03-22T06:08:25;4.13;;;3.17;;
13347;SDS011;6743;49.934;9.138;2024-03-22T06:10:52;5.20;;;2.90;;
13347;SDS011;6743;49.934;9.138;2024-03-22T06:13:18;4.90;;;3.07;;
13347;SDS011;6743;49.934;9.138;2024-03-22T06:15:44;3.97;;;2.90;;
13347;SDS011;6743;49.934;9.138;2024-03-22T06:18:10;3.07;;;2.73;;
13347;SDS011;6743;49.934;9.138;2024-03-22T06:20:36;5.13;;;2.90;;
13347;SDS011;6743;49.934;9.138;2024-03-22T06:23:03;3.30;;;3.07;;
13347;SDS011;6743;49.934;9.138;2024-03-22T06:25:29;5.83;;;3.33;;
13347;SDS011;6743;49.934;9.138;2024-03-22T06:27:55;2.70;;;2.50;;
13347;SDS011;6743;49.934;9.138;2024-03-22T06:30:21;3.77;;;3.43;;
13347;SDS011;6743;49.934;9.138;2024-03-22T06:32:47;5.43;;;3.50;;
13347;SDS011;6743;49.934;9.138;2024-03-22T06:35:13;5.07;;;3.57;;
13347;SDS011;6743;49.934;9.138;2024-03-22T06:37:39;3.03;;;2.83;;
13347;SDS011;6743;49.934;9.138;2024-03-22T06:40:07;4.17;;;3.20;;
13347;SDS011;6743;49.934;9.138;2024-03-22T06:42:33;3.30;;;3.00;;
13347;SDS011;6743;49.934;9.138;2024-03-22T06:44:59;5.10;;;3.17;;
13347;SDS011;6743;49.934;9.138;2024-03-22T06:47:25;4.90;;;2.50;;
13347;SDS011;6743;49.934;9.138;2024-03-22T06:49:51;4.90;;;2.97;;
13347;SDS011;6743;49.934;9.138;2024-03-22T06:52:16;3.40;;;2.50;;
13347;SDS011;6743;49.934;9.138;2024-03-22T06:54:44;4.00;;;2.63;;
13347;SDS011;6743;49.934;9.138;2024-03-22T06:57:11;4.10;;;2.50;;
13347;SDS011;6743;49.934;9.138;2024-03-22T06:59:37;4.13;;;3.10;;
13347;SDS011;6743;49.934;9.138;2024-03-22T07:02:02;2.87;;;2.57;;
13347;SDS011;6743;49.934;9.138;2024-03-22T07:04:29;4.83;;;3.10;;
13347;SDS011;6743;49.934;9.138;2024-03-22T07:06:55;4.27;;;3.03;;
13347;SDS011;6743;49.934;9.138;2024-03-22T07:09:21;4.20;;;3.03;;
13347;SDS011;6743;49.934;9.138;2024-03-22T07:11:46;5.13;;;3.80;;
13347;SDS011;6743;49.934;9.138;2024-03-22T07:14:13;4.90;;;3.30;;
13347;SDS011;6743;49.934;9.138;2024-03-22T07:16:39;2.60;;;2.37;;
13347;SDS011;6743;49.934;9.138;2024-03-22T07:19:05;5.57;;;3.10;;
13347;SDS011;6743;49.934;9.138;2024-03-22T07:21:31;3.40;;;2.97;;
13347;SDS011;6743;49.934;9.138;2024-03-22T07:23:57;4.40;;;3.40;;
13347;SDS011;6743;49.934;9.138;2024-03-22T07:26:22;4.37;;;3.10;;
13347;SDS011;6743;49.934;9.138;2024-03-22T07:28:48;6.07;;;3.07;;
13347;SDS011;6743;49.934;9.138;2024-03-22T07:31:15;2.70;;;2.50;;
13347;SDS011;6743;49.934;9.138;2024-03-22T07:33:41;3.70;;;2.70;;
13347;SDS011;6743;49.934;9.138;2024-03-22T07:36:06;5.07;;;3.43;;
13347;SDS011;6743;49.934;9.138;2024-03-22T07:38:32;5.80;;;3.60;;
13347;SDS011;6743;49.934;9.138;2024-03-22T07:40:58;6.53;;;3.40;;
13347;SDS011;6743;49.934;9.138;2024-03-22T07:43:24;4.93;;;3.70;;
13347;SDS011;6743;49.934;9.138;2024-03-22T07:45:50;4.03;;;3.30;;
13347;SDS011;6743;49.934;9.138;2024-03-22T07:48:16;5.43;;;3.83;;
13347;SDS011;6743;49.934;9.138;2024-03-22T07:50:43;4.93;;;3.80;;
13347;SDS011;6743;49.934;9.138;2024-03-22T07:53:09;5.03;;;3.37;;
13347;SDS011;6743;49.934;9.138;2024-03-22T07:55:34;4.47;;;3.70;;
13347;SDS011;6743;49.934;9.138;2024-03-22T07:58:01;4.37;;;3.15;;
13347;SDS011;6743;49.934;9.138;2024-03-22T08:00:26;4.03;;;3.28;;
13347;SDS011;6743;49.934;9.138;2024-03-22T08:02:52;5.00;;;3.80;;
13347;SDS011;6743;49.934;9.138;2024-03-22T08:05:19;3.78;;;3.37;;
13347;SDS011;6743;49.934;9.138;2024-03-22T08:07:45;3.72;;;3.30;;
13347;SDS011;6743;49.934;9.138;2024-03-22T08:10:10;4.93;;;2.95;;
13347;SDS011;6743;49.934;9.138;2024-03-22T08:12:37;4.15;;;3.30;;
13347;SDS011;6743;49.934;9.138;2024-03-22T08:15:03;4.95;;;4.40;;
13347;SDS011;6743;49.934;9.138;2024-03-22T08:17:30;6.57;;;3.62;;
13347;SDS011;6743;49.934;9.138;2024-03-22T08:19:56;4.43;;;3.80;;
13347;SDS011;6743;49.934;9.138;2024-03-22T08:22:23;3.85;;;3.25;;
13347;SDS011;6743;49.934;9.138;2024-03-22T08:24:48;6.25;;;3.60;;
13347;SDS011;6743;49.934;9.138;2024-03-22T08:27:14;4.82;;;3.90;;
13347;SDS011;6743;49.934;9.138;2024-03-22T08:29:40;6.28;;;3.62;;
13347;SDS011;6743;49.934;9.138;2024-03-22T08:32:06;6.00;;;3.60;;
13347;SDS011;6743;49.934;9.138;2024-03-22T08:34:35;5.35;;;4.20;;
13347;SDS011;6743;49.934;9.138;2024-03-22T08:37:01;6.45;;;3.75;;
13347;SDS011;6743;49.934;9.138;2024-03-22T08:39:29;5.40;;;3.53;;
13347;SDS011;6743;49.934;9.138;2024-03-22T08:41:55;7.32;;;4.72;;
13347;SDS011;6743;49.934;9.138;2024-03-22T08:44:23;6.00;;;3.65;;
13347;SDS011;6743;49.934;9.138;2024-03-22T08:46:48;4.32;;;3.70;;
13347;SDS011;6743;49.934;9.138;2024-03-22T08:49:15;3.87;;;3.40;;
13347;SDS011;6743;49.934;9.138;2024-03-22T08:51:41;4.22;;;3.58;;
13347;SDS011;6743;49.934;9.138;2024-03-22T08:54:06;5.20;;;3.35;;
13347;SDS011;6743;49.934;9.138;2024-03-22T08:56:33;5.37;;;3.30;;
13347;SDS011;6743;49.934;9.138;2024-03-22T08:58:59;5.10;;;3.83;;
13347;SDS011;6743;49.934;9.138;2024-03-22T09:01:25;5.75;;;3.42;;
13347;SDS011;6743;49.934;9.138;2024-03-22T09:03:50;4.95;;;3.72;;
13347;SDS011;6743;49.934;9.138;2024-03-22T09:06:16;4.62;;;3.70;;
13347;SDS011;6743;49.934;9.138;2024-03-22T09:08:42;5.10;;;3.15;;
13347;SDS011;6743;49.934;9.138;2024-03-22T09:11:08;3.08;;;2.65;;
13347;SDS011;6743;49.934;9.138;2024-03-22T09:13:34;4.82;;;3.30;;
13347;SDS011;6743;49.934;9.138;2024-03-22T09:16:00;4.75;;;3.12;;
13347;SDS011;6743;49.934;9.138;2024-03-22T09:18:26;3.70;;;2.95;;
13347;SDS011;6743;49.934;9.138;2024-03-22T09:20:53;5.55;;;3.17;;
13347;SDS011;6743;49.934;9.138;2024-03-22T09:23:18;4.53;;;3.20;;
13347;SDS011;6743;49.934;9.138;2024-03-22T09:25:44;3.37;;;3.00;;
13347;SDS011;6743;49.934;9.138;2024-03-22T09:28:11;3.20;;;2.70;;
13347;SDS011;6743;49.934;9.138;2024-03-22T09:30:38;2.80;;;2.35;;
13347;SDS011;6743;49.934;9.138;2024-03-22T09:33:04;7.05;;;3.62;;
13347;SDS011;6743;49.934;9.138;2024-03-22T09:35:30;2.83;;;2.50;;
13347;SDS011;6743;49.934;9.138;2024-03-22T09:37:56;3.20;;;2.62;;
13347;SDS011;6743;49.934;9.138;2024-03-22T09:40:22;3.95;;;3.20;;
13347;SDS011;6743;49.934;9.138;2024-03-22T09:42:48;3.40;;;2.83;;
13347;SDS011;6743;49.934;9.138;2024-03-22T09:45:15;4.10;;;2.83;;
13347;SDS011;6743;49.934;9.138;2024-03-22T09:47:44;4.18;;;2.58;;
13347;SDS011;6743;49.934;9.138;2024-03-22T09:50:11;3.50;;;2.62;;
13347;SDS011;6743;49.934;9.138;2024-03-22T09:52:37;4.65;;;3.30;;
13347;SDS011;6743;49.934;9.138;2024-03-22T09:55:04;3.50;;;3.05;;
13347;SDS011;6743;49.934;9.138;2024-03-22T09:57:30;4.45;;;2.92;;
13347;SDS011;6743;49.934;9.138;2024-03-22T09:59:57;4.72;;;3.35;;
13347;SDS011;6743;49.934;9.138;2024-03-22T10:02:24;5.57;;;3.53;;
13347;SDS011;6743;49.934;9.138;2024-03-22T10:04:52;3.58;;;2.55;;
13347;SDS011;6743;49.934;9.138;2024-03-22T10:07:18;3.72;;;2.60;;
13347;SDS011;6743;49.934;9.138;2024-03-22T10:09:44;3.67;;;3.08;;
13347;SDS011;6743;49.934;9.138;2024-03-22T10:12:11;3.92;;;3.03;;
13347;SDS011;6743;49.934;9.138;2024-03-22T10:14:37;2.58;;;2.37;;
13347;SDS011;6743;49.934;9.138;2024-03-22T10:17:05;5.18;;;2.72;;
13347;SDS011;6743;49.934;9.138;2024-03-22T10:19:31;4.10;;;3.03;;
13347;SDS011;6743;49.934;9.138;2024-03-22T10:22:00;3.25;;;2.35;;
13347;SDS011;6743;49.934;9.138;2024-03-22T10:24:27;4.62;;;3.25;;
13347;SDS011;6743;49.934;9.138;2024-03-22T10:26:53;3.80;;;2.67;;
13347;SDS011;6743;49.934;9.138;2024-03-22T10:29:19;4.12;;;2.47;;
13347;SDS011;6743;49.934;9.138;2024-03-22T10:31:47;2.90;;;2.17;;
13347;SDS011;6743;49.934;9.138;2024-03-22T10:34:13;2.37;;;2.05;;
13347;SDS011;6743;49.934;9.138;2024-03-22T10:36:39;3.00;;;2.50;;
13347;SDS011;6743;49.934;9.138;2024-03-22T10:39:06;2.20;;;2.00;;
13347;SDS011;6743;49.934;9.138;2024-03-22T10:41:33;4.70;;;2.22;;
13347;SDS011;6743;49.934;9.138;2024-03-22T10:43:59;2.42;;;2.22;;
13347;SDS011;6743;49.934;9.138;2024-03-22T10:46:27;3.45;;;2.35;;
13347;SDS011;6743;49.934;9.138;2024-03-22T10:48:56;2.22;;;2.03;;
13347;SDS011;6743;49.934;9.138;2024-03-22T10:51:22;2.22;;;1.87;;
13347;SDS011;6743;49.934;9.138;2024-03-22T10:53:50;2.10;;;1.98;;
13347;SDS011;6743;49.934;9.138;2024-03-22T10:56:18;3.85;;;1.98;;
13347;SDS011;6743;49.934;9.138;2024-03-22T10:58:45;2.60;;;1.95;;
13347;SDS011;6743;49.934;9.138;2024-03-22T11:01:21;3.58;;;2.35;;
13347;SDS011;6743;49.934;9.138;2024-03-22T11:03:48;3.30;;;2.55;;
13347;SDS011;6743;49.934;9.138;2024-03-22T11:06:13;2.28;;;1.87;;
13347;SDS011;6743;49.934;9.138;2024-03-22T11:08:44;2.20;;;1.90;;
13347;SDS011;6743;49.934;9.138;2024-03-22T11:11:15;2.12;;;1.95;;
13347;SDS011;6743;49.934;9.138;2024-03-22T11:13:46;2.00;;;1.85;;
13347;SDS011;6743;49.934;9.138;2024-03-22T11:16:12;2.75;;;2.20;;
13347;SDS011;6743;49.934;9.138;2024-03-22T11:18:40;2.50;;;1.62;;
13347;SDS011;6743;49.934;9.138;2024-03-22T11:21:06;1.92;;;1.50;;
13347;SDS011;6743;49.934;9.138;2024-03-22T11:23:34;1.80;;;1.70;;
13347;SDS011;6743;49.934;9.138;2024-03-22T11:26:01;2.97;;;2.00;;
13347;SDS011;6743;49.934;9.138;2024-03-22T11:28:28;2.15;;;1.98;;
13347;SDS011;6743;49.934;9.138;2024-03-22T11:30:54;2.35;;;2.15;;
13347;SDS011;6743;49.934;9.138;2024-03-22T11:33:20;2.30;;;1.67;;
13347;SDS011;6743;49.934;9.138;2024-03-22T11:35:46;2.72;;;2.10;;
13347;SDS011;6743;49.934;9.138;2024-03-22T11:38:12;2.42;;;1.80;;
13347;SDS011;6743;49.934;9.138;2024-03-22T11:40:37;1.90;;;1.73;;
13347;SDS011;6743;49.934;9.138;2024-03-22T11:43:04;4.72;;;2.03;;
13347;SDS011;6743;49.934;9.138;2024-03-22T11:45:31;2.50;;;2.00;;
13347;SDS011;6743;49.934;9.138;2024-03-22T11:48:01;2.08;;;1.87;;
13347;SDS011;6743;49.934;9.138;2024-03-22T11:50:27;1.92;;;1.80;;
13347;SDS011;6743;49.934;9.138;2024-03-22T11:52:53;3.85;;;1.92;;
13347;SDS011;6743;49.934;9.138;2024-03-22T11:55:19;2.33;;;2.10;;
13347;SDS011;6743;49.934;9.138;2024-03-22T11:57:47;4.28;;;2.17;;
13347;SDS011;6743;49.934;9.138;2024-03-22T12:00:14;2.28;;;2.05;;
13347;SDS011;6743;49.934;9.138;2024-03-22T12:02:41;2.55;;;2.20;;
13347;SDS011;6743;49.934;9.138;2024-03-22T12:05:07;4.10;;;2.15;;
13347;SDS011;6743;49.934;9.138;2024-03-22T12:07:33;2.65;;;2.10;;
13347;SDS011;6743;49.934;9.138;2024-03-22T12:09:59;2.40;;;2.10;;
13347;SDS011;6743;49.934;9.138;2024-03-22T12:12:25;3.67;;;2.33;;
13347;SDS011;6743;49.934;9.138;2024-03-22T12:14:51;3.45;;;2.47;;
13347;SDS011;6743;49.934;9.138;2024-03-22T12:17:18;4.28;;;2.67;;
13347;SDS011;6743;49.934;9.138;2024-03-22T12:19:44;2.70;;;2.42;;
13347;SDS011;6743;49.934;9.138;2024-03-22T12:22:10;4.40;;;2.67;;
13347;SDS011;6743;49.934;9.138;2024-03-22T12:24:36;3.47;;;2.60;;
13347;SDS011;6743;49.934;9.138;2024-03-22T12:27:03;3.87;;;3.05;;
13347;SDS011;6743;49.934;9.138;2024-03-22T12:29:29;5.80;;;3.37;;
13347;SDS011;6743;49.934;9.138;2024-03-22T12:31:57;4.30;;;3.15;;
13347;SDS011;6743;49.934;9.138;2024-03-22T12:34:23;3.20;;;2.65;;
13347;SDS011;6743;49.934;9.138;2024-03-22T12:36:49;3.50;;;2.80;;
13347;SDS011;6743;49.934;9.138;2024-03-22T12:39:15;5.18;;;3.70;;
13347;SDS011;6743;49.934;9.138;2024-03-22T12:41:41;3.50;;;3.20;;
13347;SDS011;6743;49.934;9.138;2024-03-22T12:44:07;6.65;;;3.53;;
13347;SDS011;6743;49.934;9.138;2024-03-22T12:46:33;3.42;;;2.95;;
13347;SDS011;6743;49.934;9.138;2024-03-22T12:48:59;4.57;;;3.15;;
13347;SDS011;6743;49.934;9.138;2024-03-22T12:51:25;4.18;;;3.45;;
13347;SDS011;6743;49.934;9.138;2024-03-22T12:53:51;4.18;;;3.33;;
13347;SDS011;6743;49.934;9.138;2024-03-22T12:56:17;4.65;;;2.87;;
13347;SDS011;6743;49.934;9.138;2024-03-22T12:58:43;3.55;;;2.97;;
13347;SDS011;6743;49.934;9.138;2024-03-22T13:01:09;3.58;;;3.28;;
13347;SDS011;6743;49.934;9.138;2024-03-22T13:03:36;4.65;;;3.20;;
13347;SDS011;6743;49.934;9.138;2024-03-22T13:06:02;4.20;;;2.95;;
13347;SDS011;6743;49.934;9.138;2024-03-22T13:08:29;4.90;;;3.40;;
13347;SDS011;6743;49.934;9.138;2024-03-22T13:10:55;2.70;;;2.50;;
13347;SDS011;6743;49.934;9.138;2024-03-22T13:13:21;3.47;;;3.05;;
13347;SDS011;6743;49.934;9.138;2024-03-22T13:15:47;3.90;;;3.42;;
13347;SDS011;6743;49.934;9.138;2024-03-22T13:18:13;5.07;;;3.25;;
13347;SDS011;6743;49.934;9.138;2024-03-22T13:20:39;4.97;;;3.10;;
13347;SDS011;6743;49.934;9.138;2024-03-22T13:23:05;3.25;;;2.70;;
13347;SDS011;6743;49.934;9.138;2024-03-22T13:25:34;5.03;;;2.72;;
13347;SDS011;6743;49.934;9.138;2024-03-22T13:28:00;3.90;;;2.87;;
13347;SDS011;6743;49.934;9.138;2024-03-22T13:30:27;4.18;;;3.10;;
13347;SDS011;6743;49.934;9.138;2024-03-22T13:32:54;5.68;;;2.87;;
13347;SDS011;6743;49.934;9.138;2024-03-22T13:35:20;3.20;;;2.90;;
13347;SDS011;6743;49.934;9.138;2024-03-22T13:37:46;4.32;;;3.20;;
13347;SDS011;6743;49.934;9.138;2024-03-22T13:40:15;4.62;;;2.87;;
13347;SDS011;6743;49.934;9.138;2024-03-22T13:42:43;3.50;;;2.60;;
13347;SDS011;6743;49.934;9.138;2024-03-22T13:45:10;4.65;;;3.33;;
13347;SDS011;6743;49.934;9.138;2024-03-22T13:47:35;4.25;;;2.50;;
13347;SDS011;6743;49.934;9.138;2024-03-22T13:50:02;5.68;;;3.10;;
13347;SDS011;6743;49.934;9.138;2024-03-22T13:52:33;5.68;;;3.10;;
13347;SDS011;6743;49.934;9.138;2024-03-22T13:54:59;5.18;;;3.03;;
13347;SDS011;6743;49.934;9.138;2024-03-22T13:57:26;4.07;;;2.62;;
13347;SDS011;6743;49.934;9.138;2024-03-22T13:59:54;4.18;;;3.28;;
13347;SDS011;6743;49.934;9.138;2024-03-22T14:02:22;4.28;;;3.25;;
13347;SDS011;6743;49.934;9.138;2024-03-22T14:04:48;3.60;;;2.90;;
13347;SDS011;6743;49.934;9.138;2024-03-22T14:07:14;3.35;;;2.65;;
13347;SDS011;6743;49.934;9.138;2024-03-22T14:09:40;3.22;;;2.67;;
13347;SDS011;6743;49.934;9.138;2024-03-22T14:12:06;6.15;;;3.28;;
13347;SDS011;6743;49.934;9.138;2024-03-22T14:14:32;3.95;;;3.22;;
13347;SDS011;6743;49.934;9.138;2024-03-22T14:16:59;6.10;;;3.17;;
13347;SDS011;6743;49.934;9.138;2024-03-22T14:19:32;3.95;;;2.75;;
13347;SDS011;6743;49.934;9.138;2024-03-22T14:21:58;3.53;;;2.67;;
13347;SDS011;6743;49.934;9.138;2024-03-22T14:24:24;4.57;;;3.12;;
13347;SDS011;6743;49.934;9.138;2024-03-22T14:26:50;4.00;;;3.20;;
13347;SDS011;6743;49.934;9.138;2024-03-22T14:29:16;4.62;;;2.75;;
13347;SDS011;6743;49.934;9.138;2024-03-22T14:31:41;3.70;;;2.80;;
13347;SDS011;6743;49.934;9.138;2024-03-22T14:34:09;4.55;;;3.30;;
13347;SDS011;6743;49.934;9.138;2024-03-22T14:36:35;4.28;;;3.03;;
13347;SDS011;6743;49.934;9.138;2024-03-22T14:39:01;5.00;;;3.40;;
13347;SDS011;6743;49.934;9.138;2024-03-22T14:41:30;3.95;;;2.97;;
13347;SDS011;6743;49.934;9.138;2024-03-22T14:43:56;6.95;;;3.12;;
13347;SDS011;6743;49.934;9.138;2024-03-22T14:46:21;4.93;;;3.50;;
13347;SDS011;6743;49.934;9.138;2024-03-22T14:48:53;3.53;;;2.55;;
13347;SDS011;6743;49.934;9.138;2024-03-22T14:51:19;3.75;;;2.83;;
13347;SDS011;6743;49.934;9.138;2024-03-22T14:53:46;4.68;;;2.85;;